ESOW

Stockholm Västerås Airport

Stockholm / Västerås, Sweden
METAR ESOW 131020Z 36005KT 8000 SG SCT006 BKN021 M01/M03 Q1034 R01/490195
Observed Flight Rules
Dec-13 @ 10:20 UTC (31 minutes ago) Marginal Visual Flight Rules
Wind Visibility Clouds Conditions
360° at 5 knots 7,998 meters
  • Scattered at 600' AGL
  • Broken at 2,100' AGL
  • Snow grains
Temperatures Readings
Current -1°C / 30°F
Dewpoint -3°C / 27°F
Humidity 86%
Altimeter 30.53" Hg
Pressure 1034 hPa
Elevation 31
METAR ESOW 131020Z 36005KT 8000 SG SCT006 BKN021 M01/M03 Q1034 R01/490195
Observed Flight Rules
Dec-13 @ 10:20 UTC
(31 minutes ago)
MVFR
Wind Visibility
360° at 5 knots 7,998 meters
Clouds
  • Scattered at 600' AGL
  • Broken at 2,100' AGL
Conditions
  • Snow grains
Temperature Dewpoint
-1°C / 30°F -3°C / 27°F
Humidity Altimeter Pressure
86% 30.53" Hg 1034 hPa